This is the latest recevied weather packets stored in our database for station/object VE2JJ-13. If no packets are shown the sender has not sent any weather packets the latest 10 day(s).
| Time | Temp. | Humidity | Pressure | Rain* | Wind** | Luminosity | Snow |
|---|---|---|---|---|---|---|---|
| 1778128475 | 6.11° C | 92% | 1001 hPa | 0 mm | - | - | - |
| 1778128175 | 6.11° C | 92% | 1001 hPa | 0 mm | - | - | - |
| 1778127874 | 6.11° C | 92% | 1001.1 hPa | 0 mm | - | - | - |
| 1778127574 | 6.11° C | 92% | 1001.1 hPa | 0 mm | - | - | - |
| 1778127276 | 6.11° C | 92% | 1001.1 hPa | 0 mm | - | - | - |
| 1778126974 | 6.11° C | 92% | 1001.1 hPa | 0 mm | - | - | - |
| 1778126344 | 6.11° C | 91% | 1001.1 hPa | 0 mm | - | - | - |
| 1778126048 | 6.11° C | 91% | 1001.1 hPa | 0 mm | - | - | - |
| 1778124545 | 6.67° C | 89% | 1001.2 hPa | 0 mm | - | - | - |
| 1778107202 | 9.44° C | 75% | 1001.1 hPa | 0 mm | - | - | - |
| 1778106302 | 10° C | 74% | 1001.1 hPa | 0 mm | - | - | - |
| 1778103271 | 8.89° C | 76% | 1000.9 hPa | 0 mm | - | - | - |
| 1778102971 | 9.44° C | 76% | 1000.9 hPa | 0 mm | - | - | - |
| 1778102672 | 9.44° C | 78% | 1001 hPa | 0 mm | - | - | - |
| 1778102371 | 9.44° C | 77% | 1001 hPa | 0 mm | - | - | - |
| 1778102072 | 10° C | 74% | 1001.2 hPa | 0 mm | - | - | - |
| 1778101111 | 9.44° C | 75% | 1001.1 hPa | 0 mm | - | - | - |
| 1778096762 | 8.89° C | 76% | 1001.6 hPa | 0 mm | - | - | - |
| 1778096132 | 8.89° C | 81% | 1001.5 hPa | 0 mm | - | - | - |
| 1778095502 | 8.89° C | 81% | 1001.5 hPa | 0 mm | - | - | - |
| 1778095171 | 8.89° C | 81% | 1001.5 hPa | 0 mm | - | - | - |
| 1778091033 | 8.33° C | 82% | 1001.8 hPa | 0 mm | - | - | - |
| 1778090733 | 7.78° C | 82% | 1001.8 hPa | 0 mm | - | - | - |
| 1778085423 | 7.78° C | 87% | 1002.7 hPa | 0.76 mm | - | - | - |
| 1778085092 | 7.78° C | 87% | 1002.7 hPa | 0.76 mm | - | - | - |
* Rain latest hour (hover to see other rain measurements)
** Current wind speed in m/s (hover to see current wind gust speed)